createdAt,value
2017-12-17T00:08:01.116Z,7.48
2017-12-17T00:10:33.056Z,7.67
2017-12-17T00:14:17.430Z,7.57
2017-12-17T00:16:18.592Z,7.58
2017-12-17T00:18:56.325Z,7.55
2017-12-17T00:19:42.622Z,7.66
2017-12-17T00:26:31.518Z,7.6
2017-12-17T00:28:12.435Z,7.32
2017-12-17T00:29:50.814Z,7.37
2017-12-17T00:30:34.852Z,7.29
2017-12-17T00:31:14.301Z,7.26
2017-12-17T00:31:57.279Z,7.41
2017-12-17T00:32:37.361Z,7.19
2017-12-17T00:33:17.840Z,7.21
2017-12-17T00:34:00.405Z,7.21
2017-12-17T00:34:43.622Z,7.15
2017-12-17T00:35:24.019Z,7.11
2017-12-17T00:36:08.123Z,7.05
2017-12-17T00:36:49.010Z,7.15
2017-12-17T00:37:30.741Z,7.18
2017-12-17T00:38:12.553Z,7.21
2017-12-17T00:38:54.431Z,7.26
2017-12-17T00:39:35.125Z,7.26
2017-12-17T00:40:15.950Z,7.32
2017-12-17T00:40:56.912Z,7.32
2017-12-17T00:41:40.300Z,7.27
2017-12-17T00:42:22.936Z,7.34
2017-12-17T00:43:03.892Z,7.3
2017-12-17T00:43:44.890Z,7.23
2017-12-17T00:44:26.929Z,7.19
2017-12-17T00:45:08.934Z,7.18
2017-12-17T00:45:48.833Z,7.29
2017-12-17T00:46:29.571Z,7.19
2017-12-17T00:47:10.254Z,7.3
2017-12-17T00:47:51.032Z,7.19
2017-12-17T00:48:31.382Z,7.14
2017-12-17T00:49:12.708Z,7.26
2017-12-17T00:49:53.165Z,7.23
2017-12-17T00:50:35.021Z,7.48
2017-12-17T00:51:15.959Z,7.24
2017-12-17T00:53:14.035Z,7.29
2017-12-17T00:54:09.552Z,7.32
2017-12-17T00:55:47.755Z,7.26
2017-12-17T00:57:56.149Z,7.44
2017-12-17T00:59:58.926Z,7.36
2017-12-17T01:02:22.823Z,7.39
2017-12-17T01:04:02.028Z,7.47
2017-12-17T01:05:35.102Z,7.6
2017-12-17T01:11:46.681Z,7.48
2017-12-17T01:14:26.132Z,7.54
2017-12-17T01:16:32.232Z,7.5
2017-12-17T01:23:10.504Z,7.48
2017-12-17T01:24:02.201Z,7.39
2017-12-17T01:25:44.404Z,7.3
2017-12-17T01:26:38.650Z,7.23
2017-12-17T01:27:28.410Z,7.29
2017-12-17T01:32:24.880Z,7.45
2017-12-17T01:33:17.729Z,7.23
2017-12-17T01:35:57.069Z,7.29
2017-12-17T01:40:46.958Z,7.6
2017-12-17T01:43:54.065Z,7.36
2017-12-17T01:45:54.404Z,7.27
2017-12-17T01:47:53.163Z,7.41
2017-12-17T01:50:01.329Z,7.32
2017-12-17T01:52:09.998Z,7.32
2017-12-17T01:52:58.600Z,7.24
2017-12-17T01:55:01.173Z,7.33
2017-12-17T01:56:39.629Z,7.34
2017-12-17T02:00:48.831Z,7.23
2017-12-17T02:01:40.320Z,7.14
2017-12-17T02:02:18.592Z,7.26
2017-12-17T02:02:59.329Z,7.34
2017-12-17T02:03:39.942Z,7.3
2017-12-17T02:05:59.530Z,7.15
2017-12-17T02:10:07.498Z,7.26
2017-12-17T02:12:42.845Z,7.39
2017-12-17T02:13:34.404Z,7.34
2017-12-17T02:15:36.282Z,7.24
2017-12-17T02:20:45.514Z,7.16
2017-12-17T02:22:50.286Z,7.16
2017-12-17T02:23:39.342Z,7.24
2017-12-17T02:25:38.695Z,7.19
2017-12-17T02:27:15.987Z,7.23
2017-12-17T02:30:03.300Z,7.32
2017-12-17T02:33:26.046Z,7.57
2017-12-17T02:34:18.701Z,7.6
2017-12-17T02:35:11.663Z,7.6
2017-12-17T02:37:06.927Z,7.71
2017-12-17T02:39:09.720Z,7.66
2017-12-17T02:40:46.077Z,7.55
2017-12-17T02:41:24.259Z,7.5
2017-12-17T02:42:06.972Z,7.6
2017-12-17T02:42:48.033Z,7.55
2017-12-17T02:43:28.440Z,7.63
2017-12-17T02:44:10.750Z,7.51
2017-12-17T02:44:50.872Z,7.54
2017-12-17T02:53:01.131Z,7.32
2017-12-17T02:53:41.001Z,7.24
2017-12-17T02:54:22.623Z,7.29
2017-12-17T02:55:03.488Z,7.33
2017-12-17T02:55:44.269Z,7.19
2017-12-17T02:56:24.866Z,7.27
2017-12-17T02:57:05.428Z,7.32
2017-12-17T02:57:46.052Z,7.14
2017-12-17T02:58:28.151Z,7.12
2017-12-17T02:59:08.765Z,7.21
2017-12-17T02:59:49.428Z,7.26
2017-12-17T03:00:30.769Z,7.18
2017-12-17T03:01:11.623Z,7.14
2017-12-17T03:01:52.494Z,7.19
2017-12-17T03:02:34.346Z,7.15
2017-12-17T03:03:14.049Z,7.21
2017-12-17T03:03:59.130Z,7.18
2017-12-17T03:04:40.683Z,7.19
2017-12-17T03:05:21.278Z,6.99
2017-12-17T03:06:04.095Z,7.11
2017-12-17T03:06:45.139Z,7.18
2017-12-17T03:07:30.742Z,7.15
2017-12-17T03:08:11.266Z,7.15
2017-12-17T03:08:51.638Z,7.19
2017-12-17T03:09:32.568Z,7.18
2017-12-17T03:10:14.142Z,7.15
2017-12-17T03:10:54.731Z,7.16
2017-12-17T03:11:35.176Z,7.19
2017-12-17T03:12:16.794Z,7.26
2017-12-17T03:12:57.263Z,7.26
2017-12-17T03:13:38.981Z,7.27
2017-12-17T03:14:19.541Z,7.24
2017-12-17T03:15:04.006Z,7.36
2017-12-17T03:15:45.507Z,7.23
2017-12-17T03:16:26.523Z,7.19
2017-12-17T03:17:07.154Z,7.18
2017-12-17T03:17:48.015Z,7.29
2017-12-17T03:18:28.511Z,7.23
2017-12-17T03:19:12.254Z,7.21
2017-12-17T03:19:51.170Z,7.09
2017-12-17T03:20:31.598Z,7.09
2017-12-17T03:21:13.678Z,7.18
2017-12-17T03:21:54.385Z,7.11
2017-12-17T03:22:35.037Z,7.08
2017-12-17T03:23:15.463Z,7.14
2017-12-17T03:23:56.563Z,7.16
2017-12-17T03:24:37.468Z,7.15
2017-12-17T03:25:18.517Z,7.15
2017-12-17T03:25:59.914Z,7.14
2017-12-17T03:26:40.266Z,7.14
2017-12-17T03:27:22.451Z,7.11
2017-12-17T03:28:02.735Z,7.14
2017-12-17T03:28:43.901Z,7.18
2017-12-17T03:29:24.512Z,7.19
2017-12-17T03:30:07.736Z,7.15
2017-12-17T03:30:47.856Z,7.21
2017-12-17T03:31:28.777Z,7.23
2017-12-17T03:32:10.289Z,7.21
2017-12-17T03:32:50.882Z,7.23
2017-12-17T03:33:31.351Z,7.21
2017-12-17T03:34:12.216Z,7.19
2017-12-17T03:34:54.297Z,7.34
2017-12-17T03:35:34.612Z,7.27
2017-12-17T03:36:16.736Z,7.26
2017-12-17T03:36:57.239Z,7.21
2017-12-17T03:37:38.041Z,7.14
2017-12-17T03:38:18.680Z,7.21
2017-12-17T03:38:59.060Z,7.14
2017-12-17T03:39:40.092Z,7.14
2017-12-17T03:40:21.888Z,7.16
2017-12-17T03:41:02.821Z,7.14
2017-12-17T03:41:45.531Z,7.16
2017-12-17T03:42:26.025Z,7.16
2017-12-17T03:43:07.332Z,7.24
2017-12-17T03:43:49.296Z,7.27
2017-12-17T03:44:29.672Z,7.16
2017-12-17T03:45:11.298Z,7.14
2017-12-17T03:45:51.684Z,7.11
2017-12-17T03:46:32.941Z,7
2017-12-17T03:47:14.325Z,7.05
2017-12-17T03:49:19.123Z,6.93
2017-12-17T03:52:22.005Z,6.57
2017-12-17T03:56:28.478Z,6.13
2017-12-17T03:58:36.964Z,6.21
2017-12-17T04:00:43.498Z,6.03
2017-12-17T04:41:05.416Z,6.11
2017-12-17T04:42:05.829Z,6.27
2017-12-17T04:43:39.021Z,6.2
2017-12-17T04:46:11.870Z,6.02
2017-12-17T04:48:14.448Z,6.16
2017-12-17T04:49:06.711Z,6.21
2017-12-17T04:50:58.461Z,6.27
2017-12-17T04:51:46.722Z,6.24
2017-12-17T04:52:32.073Z,6.35
2017-12-17T04:53:12.361Z,6.45
2017-12-17T04:53:53.205Z,6.55
2017-12-17T04:54:33.698Z,6.48
2017-12-17T04:55:14.944Z,6.46
2017-12-17T04:55:55.323Z,6.46
2017-12-17T04:56:35.833Z,6.5
2017-12-17T04:57:16.189Z,6.53
2017-12-17T04:57:56.575Z,6.63
2017-12-17T04:58:37.549Z,6.6
2017-12-17T04:59:21.321Z,6.46
2017-12-17T05:00:02.029Z,6.46
2017-12-17T05:00:42.645Z,6.42
2017-12-17T05:01:22.947Z,6.42
2017-12-17T05:02:03.313Z,6.38
2017-12-17T05:02:43.670Z,6.48
2017-12-17T05:03:24.163Z,6.45
2017-12-17T05:04:04.846Z,6.45
2017-12-17T05:04:45.380Z,6.46
2017-12-17T05:05:25.627Z,6.46
2017-12-17T05:06:06.039Z,6.53
2017-12-17T05:06:46.422Z,6.55
2017-12-17T05:07:27.054Z,6.53
2017-12-17T05:08:07.570Z,6.51
2017-12-17T05:08:48.657Z,6.58
2017-12-17T05:09:29.160Z,6.53
2017-12-17T05:10:09.554Z,6.54
2017-12-17T05:10:49.997Z,6.54
2017-12-17T05:11:30.348Z,6.63
2017-12-17T05:12:10.784Z,6.68
2017-12-17T05:12:51.432Z,6.71
2017-12-17T05:13:32.133Z,6.68
2017-12-17T05:14:12.530Z,6.64
2017-12-17T05:14:53.351Z,6.53
2017-12-17T05:15:33.754Z,6.61
2017-12-17T05:16:14.124Z,6.71
2017-12-17T05:16:54.833Z,6.68
2017-12-17T05:17:40.622Z,6.61
2017-12-17T05:18:16.811Z,6.65
2017-12-17T05:18:57.323Z,6.63
2017-12-17T05:19:38.542Z,6.54
2017-12-17T05:20:19.064Z,6.61
2017-12-17T05:20:59.968Z,6.73
2017-12-17T05:21:42.974Z,6.79
2017-12-17T05:22:24.005Z,6.68
2017-12-17T05:23:05.495Z,6.68
2017-12-17T05:23:46.170Z,6.5
2017-12-17T05:24:26.958Z,6.68
2017-12-17T05:25:07.489Z,6.63
2017-12-17T05:25:48.089Z,6.54
2017-12-17T05:26:28.424Z,6.5
2017-12-17T05:27:10.138Z,6.5
2017-12-17T05:27:50.475Z,6.54
2017-12-17T05:28:31.536Z,6.6
2017-12-17T05:29:11.751Z,6.58
2017-12-17T05:29:52.543Z,6.53
2017-12-17T05:30:33.725Z,6.58
2017-12-17T05:31:14.586Z,6.65
2017-12-17T05:31:55.246Z,6.51
2017-12-17T05:32:35.785Z,6.53
2017-12-17T05:33:16.760Z,6.54
2017-12-17T05:33:58.260Z,6.53
2017-12-17T05:34:42.759Z,6.51
2017-12-17T05:41:27.052Z,6.83
2017-12-17T05:42:11.743Z,6.9
2017-12-17T05:43:05.347Z,6.93
2017-12-17T05:44:53.591Z,6.91
2017-12-17T05:46:59.995Z,6.87
2017-12-17T05:48:54.173Z,6.83
2017-12-17T05:49:45.278Z,6.86
2017-12-17T05:51:43.317Z,6.9
2017-12-17T05:55:34.012Z,7.05
2017-12-17T05:56:24.433Z,7.08
2017-12-17T05:58:29.864Z,7.16
2017-12-17T05:59:19.024Z,7.16
2017-12-17T06:00:58.349Z,7.21
2017-12-17T06:01:40.981Z,7.16
2017-12-17T06:02:20.939Z,7.24
2017-12-17T06:03:01.375Z,7.32
2017-12-17T06:03:41.787Z,7.23
2017-12-17T06:04:22.970Z,7.23
2017-12-17T06:05:04.036Z,7.23
2017-12-17T06:05:44.525Z,7.34
2017-12-17T06:06:28.567Z,7.32
2017-12-17T06:07:10.246Z,7.32
2017-12-17T06:07:50.550Z,7.14
2017-12-17T06:08:31.083Z,7.16
2017-12-17T06:09:11.730Z,7.16
2017-12-17T06:09:53.380Z,7.08
2017-12-17T06:10:38.614Z,7.08
2017-12-17T06:11:22.923Z,7.12
2017-12-17T06:12:02.493Z,7.14
2017-12-17T06:12:43.384Z,7.08
2017-12-17T06:13:23.633Z,7.15
2017-12-17T06:14:04.621Z,7.14
2017-12-17T06:16:33.656Z,7.18
2017-12-17T06:18:14.168Z,7.15
2017-12-17T06:19:51.996Z,7.18
2017-12-17T06:21:51.867Z,7.21
2017-12-17T06:22:43.315Z,7.21
2017-12-17T06:24:46.962Z,7.16
2017-12-17T06:26:27.456Z,7.12
2017-12-17T06:28:27.272Z,7.15
2017-12-17T06:30:03.415Z,7.15
2017-12-17T06:30:55.733Z,7.14
2017-12-17T06:31:41.149Z,7.16
2017-12-17T06:32:18.555Z,7.14
2017-12-17T06:33:04.626Z,7.21
2017-12-17T06:33:47.177Z,7.27
2017-12-17T06:34:25.884Z,7.27
2017-12-17T06:35:06.883Z,7.37
2017-12-17T06:35:47.274Z,7.34
2017-12-17T06:36:28.000Z,7.36
2017-12-17T06:37:08.885Z,7.32
2017-12-17T06:37:50.863Z,7.36
2017-12-17T06:39:54.443Z,7.42
2017-12-17T06:42:43.237Z,7.52
2017-12-17T06:44:32.532Z,7.6
2017-12-17T06:45:24.539Z,7.57
2017-12-17T06:47:14.609Z,7.58
2017-12-17T06:48:02.828Z,7.55
2017-12-17T06:48:54.751Z,7.54
2017-12-17T06:52:05.827Z,7.48
2017-12-17T06:53:42.694Z,7.36
2017-12-17T06:54:35.143Z,7.42
2017-12-17T06:55:26.132Z,7.45
2017-12-17T06:56:10.095Z,7.37
2017-12-17T06:56:52.264Z,7.41
2017-12-17T06:57:33.614Z,7.34
2017-12-17T06:58:13.941Z,7.37
2017-12-17T06:58:54.392Z,7.33
2017-12-17T06:59:35.043Z,7.36
2017-12-17T07:00:15.515Z,7.29
2017-12-17T07:00:56.288Z,7.27
2017-12-17T07:01:36.637Z,7.26
2017-12-17T07:02:19.295Z,7.26
2017-12-17T07:02:59.877Z,7.3
2017-12-17T07:03:40.352Z,7.24
2017-12-17T07:04:21.681Z,7.21
2017-12-17T07:05:02.481Z,7.19
2017-12-17T07:05:44.274Z,7.3
2017-12-17T07:06:23.551Z,7.21
2017-12-17T07:07:04.196Z,7.26
2017-12-17T07:07:44.359Z,7.33
2017-12-17T07:08:24.814Z,7.27
2017-12-17T07:09:05.849Z,7.24
2017-12-17T07:09:46.265Z,7.34
2017-12-17T07:10:26.840Z,7.42
2017-12-17T07:11:07.281Z,7.37
2017-12-17T07:11:49.570Z,7.44
2017-12-17T07:12:31.040Z,7.39
2017-12-17T07:13:11.200Z,7.36
2017-12-17T07:13:51.599Z,7.36
2017-12-17T07:14:31.980Z,7.29
2017-12-17T07:15:12.347Z,7.21
2017-12-17T07:15:52.763Z,7.27
2017-12-17T07:16:33.148Z,7.23
2017-12-17T07:17:13.554Z,7.24
2017-12-17T07:17:53.944Z,7.27
2017-12-17T07:18:34.354Z,7.3
2017-12-17T07:19:14.750Z,7.32
2017-12-17T07:19:55.168Z,7.24
2017-12-17T07:20:35.605Z,7.34
2017-12-17T07:21:15.905Z,7.3
2017-12-17T07:21:56.304Z,7.29
2017-12-17T07:22:36.683Z,7.34
2017-12-17T07:23:17.124Z,7.37
2017-12-17T07:24:01.191Z,7.3
2017-12-17T07:24:40.542Z,7.3
2017-12-17T07:25:20.833Z,7.34
2017-12-17T07:26:01.738Z,7.47
2017-12-17T07:26:46.671Z,7.37
2017-12-17T07:27:28.295Z,7.37
2017-12-17T07:28:08.736Z,7.24
2017-12-17T07:28:50.653Z,7.16
2017-12-17T07:29:31.021Z,7.23
2017-12-17T07:30:11.700Z,7.19
2017-12-17T07:30:51.826Z,7.21
2017-12-17T07:31:32.212Z,7.16
2017-12-17T07:32:12.634Z,7.21
2017-12-17T07:32:53.006Z,7.23
2017-12-17T07:35:12.565Z,7.15
2017-12-17T07:36:48.601Z,7.12
2017-12-17T07:37:32.981Z,7.15
2017-12-17T07:40:29.076Z,7.23
2017-12-17T07:41:18.593Z,7.19
2017-12-17T07:42:10.155Z,7.19
2017-12-17T07:43:00.449Z,7.36
2017-12-17T07:43:50.975Z,7.36
2017-12-17T07:46:14.727Z,7.37
2017-12-17T07:47:05.640Z,7.32
2017-12-17T07:48:50.537Z,7.37
2017-12-17T07:50:23.944Z,7.3
2017-12-17T07:52:10.541Z,7.3
2017-12-17T07:53:47.199Z,7.45
2017-12-17T07:55:51.183Z,7.45
2017-12-17T07:56:42.115Z,7.5
2017-12-17T07:57:29.920Z,7.58
2017-12-17T07:58:21.654Z,7.58
2017-12-17T07:59:10.620Z,7.52
2017-12-17T08:00:03.179Z,7.57
2017-12-17T08:01:41.337Z,7.57
2017-12-17T08:03:38.379Z,7.6
2017-12-17T08:05:44.792Z,7.54
2017-12-17T08:08:09.978Z,7.33
2017-12-17T08:10:35.638Z,7.45
2017-12-17T08:12:13.594Z,7.5
2017-12-17T08:13:41.140Z,7.32
2017-12-17T08:14:21.607Z,7.37
2017-12-17T08:15:02.639Z,7.21
2017-12-17T08:15:43.745Z,7.27
2017-12-17T08:16:26.751Z,7.41
2017-12-17T08:17:07.310Z,7.44
2017-12-17T08:17:48.511Z,7.33
2017-12-17T08:18:29.565Z,7.48
2017-12-17T08:19:09.833Z,7.39
2017-12-17T08:19:50.322Z,7.3
2017-12-17T08:20:30.789Z,7.47
2017-12-17T08:21:13.965Z,7.45
2017-12-17T08:21:54.278Z,7.45
2017-12-17T08:22:35.747Z,7.47
2017-12-17T08:23:17.970Z,7.51
2017-12-17T08:24:00.425Z,7.5
2017-12-17T08:24:42.332Z,7.48
2017-12-17T08:25:23.821Z,7.47
2017-12-17T08:26:04.061Z,7.6
2017-12-17T08:26:46.639Z,7.58
2017-12-17T08:27:29.437Z,7.54
2017-12-17T08:28:10.654Z,7.54
2017-12-17T08:28:50.966Z,7.57
2017-12-17T08:29:31.411Z,7.54
2017-12-17T08:30:13.118Z,7.44
2017-12-17T08:30:53.502Z,7.6
2017-12-17T08:32:23.418Z,7.48
2017-12-17T08:33:05.522Z,7.51
2017-12-17T08:33:46.641Z,7.51
2017-12-17T08:34:27.338Z,7.55
2017-12-17T08:35:08.897Z,7.52
2017-12-17T08:35:49.692Z,7.52
2017-12-17T08:36:30.015Z,7.55
2017-12-17T08:37:10.749Z,7.47
2017-12-17T08:37:53.304Z,7.6
2017-12-17T08:38:34.589Z,7.73
2017-12-17T08:39:16.258Z,7.76
2017-12-17T08:39:56.886Z,7.77
2017-12-17T08:40:37.879Z,7.74
2017-12-17T08:41:20.384Z,7.81
2017-12-17T08:42:00.173Z,7.74
2017-12-17T08:42:40.854Z,7.73
2017-12-17T08:43:22.147Z,7.81
2017-12-17T08:44:02.150Z,7.79
2017-12-17T08:44:45.673Z,7.79
2017-12-17T08:45:25.128Z,7.85
2017-12-17T08:46:07.057Z,7.95
2017-12-17T08:46:48.673Z,7.82
2017-12-17T08:47:28.963Z,7.79
2017-12-17T08:48:09.931Z,7.88
2017-12-17T08:48:50.685Z,7.76
2017-12-17T08:49:31.227Z,7.73
2017-12-17T08:50:11.663Z,7.63
2017-12-17T08:50:53.512Z,7.73
2017-12-17T08:51:33.063Z,7.76
2017-12-17T08:52:15.082Z,7.63
2017-12-17T08:52:55.314Z,7.76
2017-12-17T08:53:35.893Z,7.67
2017-12-17T08:54:21.186Z,7.71
2017-12-17T08:55:02.982Z,7.69
2017-12-17T08:55:48.682Z,7.79
2017-12-17T08:57:39.246Z,7.82
2017-12-17T09:01:21.777Z,7.82
2017-12-17T09:05:32.171Z,7.94
2017-12-17T09:06:11.703Z,7.96
2017-12-17T09:06:52.643Z,7.89
2017-12-17T09:07:33.027Z,7.92
2017-12-17T09:08:15.185Z,7.99
2017-12-17T09:08:57.764Z,8.06
2017-12-17T09:09:41.116Z,8.03
2017-12-17T09:10:21.509Z,7.89
2017-12-17T09:11:01.876Z,7.95
2017-12-17T09:11:42.293Z,8.06
2017-12-17T09:12:22.866Z,8.07
2017-12-17T09:13:04.819Z,8.09
2017-12-17T09:13:45.330Z,8.09
2017-12-17T09:14:25.985Z,8.06
2017-12-17T09:15:06.389Z,8.1
2017-12-17T09:15:49.305Z,8.21
2017-12-17T09:16:33.065Z,8.2
2017-12-17T09:17:12.068Z,8.18
2017-12-17T09:17:52.515Z,8.03
2017-12-17T09:18:32.828Z,7.94
2017-12-17T09:19:13.219Z,7.92
2017-12-17T09:19:53.612Z,7.95
2017-12-17T09:20:35.237Z,8.02
2017-12-17T09:21:15.705Z,8.04
2017-12-17T09:21:56.694Z,8.18
2017-12-17T09:22:39.024Z,8.2
2017-12-17T09:23:22.555Z,8.2
2017-12-17T09:24:04.042Z,8.22
2017-12-17T09:24:44.840Z,8.36
2017-12-17T09:25:27.635Z,8.31
2017-12-17T09:26:09.009Z,8.34
2017-12-17T09:26:52.985Z,8.31
2017-12-17T09:27:33.411Z,8.13
2017-12-17T09:28:14.827Z,8.22
2017-12-17T09:28:55.171Z,8.1
2017-12-17T09:29:35.870Z,8.18
2017-12-17T09:30:20.395Z,8.02
2017-12-17T09:31:02.790Z,8.14
2017-12-17T09:31:42.530Z,8.2
2017-12-17T09:32:23.265Z,8.31
2017-12-17T09:33:03.878Z,8.36
2017-12-17T09:33:44.531Z,8.32
2017-12-17T09:34:24.770Z,8.21
2017-12-17T09:35:05.938Z,8.18
2017-12-17T09:35:47.143Z,8.28
2017-12-17T09:36:27.846Z,8.29
2017-12-17T09:37:09.264Z,8.32
2017-12-17T09:37:49.583Z,8.37
2017-12-17T09:38:30.045Z,8.39
2017-12-17T09:39:12.787Z,8.25
2017-12-17T09:39:53.233Z,8.34
2017-12-17T09:40:34.860Z,8.43
2017-12-17T09:41:17.315Z,8.4
2017-12-17T09:41:56.055Z,8.27
2017-12-17T09:42:36.302Z,8.36
2017-12-17T09:43:18.816Z,8.43
2017-12-17T09:43:58.874Z,8.47
2017-12-17T09:44:39.276Z,8.57
2017-12-17T09:45:19.687Z,8.64
2017-12-17T09:46:00.042Z,8.65
2017-12-17T09:46:40.449Z,8.8
2017-12-17T09:47:21.726Z,8.73
2017-12-17T09:48:02.036Z,8.75
2017-12-17T09:48:42.441Z,8.67
2017-12-17T09:49:22.968Z,8.68
2017-12-17T09:50:03.357Z,8.88
2017-12-17T09:50:43.874Z,8.91
2017-12-17T09:51:24.844Z,8.94
2017-12-17T09:52:05.160Z,8.98
2017-12-17T09:52:45.826Z,8.82
2017-12-17T09:53:26.720Z,8.85
2017-12-17T09:54:07.356Z,8.96
2017-12-17T09:54:48.724Z,9.1
2017-12-17T09:55:28.950Z,9.1
2017-12-17T09:56:09.937Z,9.23
2017-12-17T09:56:50.233Z,9.19
2017-12-17T09:57:30.702Z,9.06
2017-12-17T09:58:12.780Z,9.12
2017-12-17T09:58:53.547Z,9.1
2017-12-17T09:59:33.883Z,9.03
2017-12-17T10:00:14.590Z,9.08
2017-12-17T10:00:54.875Z,9.12
2017-12-17T10:01:35.493Z,9.24
2017-12-17T10:02:15.925Z,9.24
2017-12-17T10:02:56.697Z,9.31
2017-12-17T10:03:37.143Z,9.4
2017-12-17T10:04:18.528Z,9.52
2017-12-17T10:46:03.263Z,8.71
2017-12-17T10:49:18.803Z,8.71
2017-12-17T10:50:04.074Z,8.83
2017-12-17T10:50:43.115Z,8.78
2017-12-17T10:51:23.524Z,8.68
2017-12-17T10:52:04.073Z,8.94
2017-12-17T10:52:46.140Z,8.88
2017-12-17T10:53:27.085Z,8.88
2017-12-17T10:55:19.566Z,8.89
2017-12-17T10:56:09.174Z,8.98
2017-12-17T10:56:54.395Z,9.01
2017-12-17T10:57:36.348Z,8.91
2017-12-17T10:58:17.001Z,9.08
2017-12-17T10:59:00.212Z,9.08
2017-12-17T10:59:40.509Z,9.04
2017-12-17T11:00:20.944Z,9.1
2017-12-17T11:01:01.338Z,9.15
2017-12-17T11:01:41.997Z,9.13
2017-12-17T11:02:23.489Z,8.98
2017-12-17T11:03:04.482Z,9.1
2017-12-17T11:03:44.725Z,9.03
2017-12-17T11:04:25.199Z,9.01
2017-12-17T11:05:09.680Z,9.13
2017-12-17T11:05:54.418Z,8.88
2017-12-17T11:06:34.121Z,9.06
2017-12-17T11:07:15.206Z,9.06
2017-12-17T11:07:56.261Z,9.08
2017-12-17T11:08:37.174Z,9.2
2017-12-17T11:09:17.662Z,9.23
2017-12-17T11:09:58.733Z,9.24
2017-12-17T11:10:39.582Z,9.23
2017-12-17T11:11:25.669Z,9.2
2017-12-17T11:12:06.124Z,9.27
2017-12-17T11:12:46.761Z,9.24
2017-12-17T11:13:28.423Z,9.23
2017-12-17T11:14:08.808Z,9.32
2017-12-17T11:14:49.550Z,9.3
2017-12-17T11:15:30.519Z,9.23
2017-12-17T11:16:10.895Z,9.08
2017-12-17T11:16:55.093Z,9.06
2017-12-17T11:17:36.227Z,9.13
2017-12-17T11:18:16.876Z,9.12
2017-12-17T11:18:57.246Z,9.15
2017-12-17T11:19:38.863Z,9.1
2017-12-17T11:20:20.468Z,9.15
2017-12-17T11:21:00.680Z,9.2
2017-12-17T11:21:42.562Z,9.2
2017-12-17T11:22:23.971Z,9.24
2017-12-17T11:23:05.648Z,9.27
2017-12-17T11:23:48.832Z,9.19
2017-12-17T11:24:29.750Z,9.19
2017-12-17T11:25:11.979Z,9.32
2017-12-17T11:25:52.518Z,9.26
2017-12-17T11:26:33.698Z,9.31
2017-12-17T11:27:14.999Z,9.27
2017-12-17T11:27:55.882Z,9.24
2017-12-17T11:28:37.158Z,9.17
2017-12-17T11:29:17.792Z,9.24
2017-12-17T11:29:58.439Z,9.32
2017-12-17T11:30:43.079Z,9.23
2017-12-17T11:31:27.107Z,9.37
2017-12-17T11:32:08.100Z,9.26
2017-12-17T11:32:49.373Z,9.35
2017-12-17T11:33:31.067Z,9.37
2017-12-17T11:34:12.075Z,9.37
2017-12-17T11:34:53.015Z,9.44
2017-12-17T11:35:33.419Z,9.49
2017-12-17T11:36:14.120Z,9.53
2017-12-17T11:36:55.142Z,9.34
2017-12-17T11:38:50.210Z,9.35
2017-12-17T11:40:28.214Z,9.13
2017-12-17T11:41:23.771Z,9.04
2017-12-17T11:42:59.979Z,9.16
2017-12-17T11:44:58.264Z,9.15
2017-12-17T11:46:58.575Z,9.34
2017-12-17T11:52:44.123Z,9.38
2017-12-17T11:53:34.685Z,9.55
2017-12-17T11:56:24.034Z,9.68
2017-12-17T11:57:03.533Z,9.6
2017-12-17T11:57:44.225Z,9.63
2017-12-17T11:58:25.765Z,9.59
2017-12-17T11:59:06.245Z,9.67
2017-12-17T11:59:46.692Z,9.68
2017-12-17T12:00:27.024Z,9.68
2017-12-17T12:01:07.499Z,9.63
2017-12-17T12:01:47.843Z,9.55
2017-12-17T12:02:28.555Z,9.6
2017-12-17T12:03:08.763Z,9.59
2017-12-17T12:03:49.147Z,9.59
2017-12-17T12:04:30.942Z,9.67
2017-12-17T12:05:10.579Z,9.7
2017-12-17T12:05:50.958Z,9.74
2017-12-17T12:06:32.099Z,9.68
2017-12-17T12:07:12.865Z,9.68
2017-12-17T12:07:53.287Z,9.63
2017-12-17T12:08:34.397Z,9.63
2017-12-17T12:09:14.988Z,9.58
2017-12-17T12:09:56.516Z,9.41
2017-12-17T12:10:38.190Z,9.31
2017-12-17T12:11:19.383Z,9.48
2017-12-17T12:12:04.249Z,9.44
2017-12-17T12:12:44.638Z,9.48
2017-12-17T12:13:25.000Z,9.56
2017-12-17T12:14:05.401Z,9.59
2017-12-17T12:14:47.393Z,9.68
2017-12-17T12:15:27.014Z,9.63
2017-12-17T12:16:09.539Z,9.6
2017-12-17T12:16:50.187Z,9.59
2017-12-17T12:17:30.773Z,9.53
2017-12-17T12:18:12.652Z,9.6
2017-12-17T12:18:52.980Z,9.62
2017-12-17T12:19:35.421Z,9.63
2017-12-17T12:20:15.743Z,9.65
2017-12-17T12:20:56.353Z,9.75
2017-12-17T12:21:36.842Z,9.71
2017-12-17T12:22:18.729Z,9.7
2017-12-17T12:22:59.177Z,9.59
2017-12-17T12:23:39.535Z,9.41
2017-12-17T12:24:20.473Z,9.38
2017-12-17T12:25:01.341Z,9.35
2017-12-17T12:25:42.505Z,9.26
2017-12-17T12:26:22.972Z,9.35
2017-12-17T12:27:03.931Z,9.34
2017-12-17T12:27:44.715Z,9.34
2017-12-17T12:28:25.250Z,9.34
2017-12-17T12:29:05.643Z,9.3
2017-12-17T12:29:48.623Z,9.44
2017-12-17T12:30:31.408Z,9.4
2017-12-17T12:31:11.921Z,9.41
2017-12-17T12:31:52.300Z,9.38
2017-12-17T12:32:33.769Z,9.31
2017-12-17T12:33:14.384Z,9.27
2017-12-17T12:39:04.518Z,9.44
2017-12-17T12:39:48.529Z,9.31
2017-12-17T12:40:40.299Z,9.37
2017-12-17T12:45:56.468Z,9.65
2017-12-17T12:47:49.755Z,9.74
2017-12-17T12:48:37.125Z,9.91
2017-12-17T12:49:17.465Z,9.96
2017-12-17T12:49:58.488Z,9.98
2017-12-17T12:50:38.986Z,9.96
2017-12-17T12:51:19.296Z,10.01
2017-12-17T12:52:00.398Z,10.13
2017-12-17T12:52:40.750Z,10.1
2017-12-17T12:53:21.071Z,10.13
2017-12-17T12:54:01.514Z,10.18
2017-12-17T12:54:41.993Z,10.24
2017-12-17T12:55:22.528Z,10.34
2017-12-17T12:56:05.595Z,10.43
2017-12-17T12:56:45.198Z,10.49
2017-12-17T12:57:27.698Z,10.44
2017-12-17T12:58:08.238Z,10.44
2017-12-17T12:58:49.734Z,10.49
2017-12-17T12:59:35.624Z,10.38
2017-12-17T13:00:20.485Z,10.55
2017-12-17T13:01:01.583Z,10.51
2017-12-17T13:02:57.426Z,10.52
2017-12-17T13:03:44.681Z,10.42
2017-12-17T13:05:26.611Z,10.47
2017-12-17T13:07:18.441Z,10.36
2017-12-17T13:08:07.497Z,10.29
2017-12-17T13:10:10.024Z,10.34
2017-12-17T13:12:48.842Z,10.25
2017-12-17T13:13:36.849Z,10.22
2017-12-17T13:15:43.004Z,10.11
2017-12-17T13:16:32.728Z,9.98
2017-12-17T13:22:44.384Z,9.89
2017-12-17T13:28:03.407Z,9.8
2017-12-17T13:28:51.089Z,9.67
2017-12-17T13:32:06.389Z,9.3
2017-12-17T13:35:37.092Z,9.26
2017-12-17T13:37:13.922Z,9.37
2017-12-17T13:38:02.013Z,9.19
2017-12-17T13:38:52.102Z,9.26
2017-12-17T13:39:35.128Z,9.24
2017-12-17T13:40:15.460Z,9.17
2017-12-17T13:40:56.157Z,9.24
2017-12-17T13:41:36.604Z,9.17
2017-12-17T13:42:17.031Z,9.04
2017-12-17T13:42:57.378Z,9.08
2017-12-17T13:43:38.642Z,9.06
2017-12-17T13:44:26.474Z,8.98
2017-12-17T13:45:07.423Z,8.94
2017-12-17T13:45:48.754Z,8.97
2017-12-17T13:46:28.737Z,9.13
2017-12-17T13:47:09.131Z,9.1
2017-12-17T13:47:49.906Z,9.12
2017-12-17T13:48:31.376Z,9.08
2017-12-17T13:49:11.791Z,8.97
2017-12-17T13:49:53.259Z,9.01
2017-12-17T13:50:33.087Z,9.12
2017-12-17T13:51:15.159Z,9.13
2017-12-17T13:51:59.324Z,9.13
2017-12-17T13:52:41.341Z,9.1
2017-12-17T13:53:23.357Z,9.13
2017-12-17T13:54:03.355Z,9.34
2017-12-17T13:54:43.752Z,9.31
2017-12-17T13:55:24.319Z,9.4
2017-12-17T13:56:04.805Z,9.44
2017-12-17T13:56:45.264Z,9.44
2017-12-17T13:57:27.028Z,9.45
2017-12-17T13:58:08.521Z,9.44
2017-12-17T13:58:49.508Z,9.5
2017-12-17T13:59:30.156Z,9.58
2017-12-17T14:00:10.186Z,9.45
2017-12-17T14:00:50.683Z,9.42
2017-12-17T14:01:31.457Z,9.41
2017-12-17T14:02:13.003Z,9.37
2017-12-17T14:02:53.765Z,9.32
2017-12-17T14:03:35.156Z,9.34
2017-12-17T14:04:22.772Z,9.44
2017-12-17T14:05:03.151Z,9.34
2017-12-17T14:05:43.724Z,9.44
2017-12-17T14:06:24.134Z,9.58
2017-12-17T14:07:05.261Z,9.48
2017-12-17T14:07:45.585Z,9.45
2017-12-17T14:08:26.103Z,9.52
2017-12-17T14:09:06.883Z,9.53
2017-12-17T14:09:48.979Z,9.45
2017-12-17T14:10:29.201Z,9.45
2017-12-17T14:11:09.590Z,9.32
2017-12-17T14:11:50.047Z,9.22
2017-12-17T14:12:30.416Z,9.31
2017-12-17T14:13:10.848Z,9.23
2017-12-17T14:13:51.224Z,9.22
2017-12-17T14:14:31.650Z,9.13
2017-12-17T14:15:12.052Z,9.12
2017-12-17T14:15:52.477Z,9.12
2017-12-17T14:16:32.938Z,9.08
2017-12-17T14:17:14.255Z,8.91
2017-12-17T14:17:54.381Z,9
2017-12-17T14:18:34.749Z,8.93
2017-12-17T14:19:15.183Z,9.06
2017-12-17T14:19:55.538Z,9.04
2017-12-17T14:20:36.811Z,9.13
2017-12-17T14:21:17.195Z,9.12
2017-12-17T14:22:01.301Z,9.12
2017-12-17T14:22:41.444Z,9.23
2017-12-17T14:23:21.852Z,9.16
2017-12-17T14:24:02.274Z,9.15
2017-12-17T14:24:43.539Z,9.16
2017-12-17T14:25:25.342Z,9.17
2017-12-17T14:26:05.757Z,9.3
2017-12-17T14:26:46.140Z,9.19
2017-12-17T14:27:26.579Z,9.2
2017-12-17T14:28:06.940Z,9.31
2017-12-17T14:28:47.383Z,9.22
2017-12-17T14:29:27.763Z,9.08
2017-12-17T14:30:08.177Z,9.08
2017-12-17T14:30:48.713Z,9.16
2017-12-17T14:31:29.081Z,9.15
2017-12-17T14:32:09.452Z,9
2017-12-17T14:32:49.849Z,9.12
2017-12-17T14:33:30.266Z,9.12
2017-12-17T14:34:10.658Z,9.04